createdAt,value
2023-04-27T00:01:24.078Z,97052.34
2023-04-27T00:03:51.982Z,97052.59
2023-04-27T00:06:19.798Z,97049.75
2023-04-27T00:08:47.583Z,97052.09
2023-04-27T00:11:15.325Z,97055.78
2023-04-27T00:13:43.127Z,97058.03
2023-04-27T00:16:10.819Z,97060.22
2023-04-27T00:18:38.537Z,97059.81
2023-04-27T00:21:06.423Z,97060.19
2023-04-27T00:23:34.132Z,97064.53
2023-04-27T00:26:01.861Z,97053.22
2023-04-27T00:28:29.565Z,97064.31
2023-04-27T00:31:00.009Z,97063.28
2023-04-27T00:33:28.344Z,97057.13
2023-04-27T00:36:01.588Z,97072.59
2023-04-27T00:38:30.253Z,97056.25
2023-04-27T00:41:03.539Z,97061.50
2023-04-27T00:43:31.496Z,97054.16
2023-04-27T00:45:59.875Z,97067.59
2023-04-27T00:48:27.720Z,97067.13
2023-04-27T00:50:55.607Z,97072.75
2023-04-27T00:53:23.544Z,97073.72
2023-04-27T00:55:51.189Z,97063.63
2023-04-27T00:58:18.942Z,97063.44
2023-04-27T01:00:46.629Z,97064.88
2023-04-27T01:03:15.688Z,97068.81
2023-04-27T01:05:44.927Z,97067.25
2023-04-27T01:08:12.645Z,97071.16
2023-04-27T01:10:41.246Z,97066.91
2023-04-27T01:13:11.348Z,97055.72
2023-04-27T01:15:39.031Z,97073.75
2023-04-27T01:18:10.602Z,97069.38
2023-04-27T01:20:38.861Z,97065.81
2023-04-27T01:23:06.759Z,97065.13
2023-04-27T01:25:34.477Z,97059.50
2023-04-27T01:28:03.500Z,97065.91
2023-04-27T01:30:31.148Z,97068.13
2023-04-27T01:32:59.962Z,97059.00
2023-04-27T01:35:28.481Z,97067.59
2023-04-27T01:38:00.721Z,97065.22
2023-04-27T01:40:28.552Z,97071.09
2023-04-27T01:42:56.275Z,97069.69
2023-04-27T01:45:23.981Z,97061.41
2023-04-27T01:47:52.649Z,97057.41
2023-04-27T01:50:21.590Z,97071.16
2023-04-27T01:52:49.386Z,97068.22
2023-04-27T01:55:17.112Z,97068.91
2023-04-27T01:57:44.930Z,97070.66
2023-04-27T02:00:13.396Z,97078.09
2023-04-27T02:02:53.446Z,97068.72
2023-04-27T02:05:21.452Z,97071.81
2023-04-27T02:07:50.018Z,97078.47
2023-04-27T02:10:17.766Z,97071.78
2023-04-27T02:12:46.184Z,97069.09
2023-04-27T02:15:13.853Z,97078.09
2023-04-27T02:17:41.692Z,97078.47
2023-04-27T02:20:10.840Z,97077.88
2023-04-27T02:22:44.715Z,97086.53
2023-04-27T02:25:12.974Z,97079.44
2023-04-27T02:27:41.395Z,97077.38
2023-04-27T02:30:10.337Z,97085.44
2023-04-27T02:32:38.466Z,97076.28
2023-04-27T02:35:06.892Z,97081.69
2023-04-27T02:37:34.772Z,97083.38
2023-04-27T02:40:04.326Z,97087.00
2023-04-27T02:42:33.489Z,97084.56
2023-04-27T02:45:01.289Z,97096.59
2023-04-27T02:47:29.071Z,97093.84
2023-04-27T02:49:56.839Z,97091.69
2023-04-27T02:52:25.059Z,97103.47
2023-04-27T02:54:52.960Z,97094.88
2023-04-27T02:57:20.654Z,97107.50
2023-04-27T02:59:48.353Z,97103.41
2023-04-27T03:02:16.357Z,97104.84
2023-04-27T03:04:44.472Z,97105.34
2023-04-27T03:07:12.917Z,97110.13
2023-04-27T03:09:40.701Z,97114.69
2023-04-27T03:12:08.389Z,97113.13
2023-04-27T03:14:36.576Z,97109.41
2023-04-27T03:17:04.311Z,97114.13
2023-04-27T03:19:32.048Z,97113.22
2023-04-27T03:21:59.737Z,97124.41
2023-04-27T03:24:27.724Z,97118.81
2023-04-27T03:26:55.656Z,97123.63
2023-04-27T03:29:23.380Z,97128.91
2023-04-27T03:31:51.213Z,97126.50
2023-04-27T03:34:20.993Z,97132.72
2023-04-27T03:36:48.768Z,97124.75
2023-04-27T03:39:16.808Z,97125.53
2023-04-27T03:41:44.636Z,97131.31
2023-04-27T03:44:13.099Z,97137.94
2023-04-27T03:46:41.012Z,97132.31
2023-04-27T03:49:08.841Z,97134.94
2023-04-27T03:51:38.434Z,97137.66
2023-04-27T03:54:06.211Z,97134.63
2023-04-27T03:56:34.031Z,97143.84
2023-04-27T03:59:01.768Z,97141.47
2023-04-27T04:01:34.235Z,97142.84
2023-04-27T04:04:02.529Z,97149.91
2023-04-27T04:06:32.303Z,97145.19
2023-04-27T04:09:00.090Z,97154.63
2023-04-27T04:11:27.812Z,97148.44
2023-04-27T04:13:58.519Z,97155.22
2023-04-27T04:16:26.294Z,97156.56
2023-04-27T04:18:54.388Z,97156.06
2023-04-27T04:21:22.554Z,97160.94
2023-04-27T04:23:50.359Z,97164.88
2023-04-27T04:26:20.753Z,97169.13
2023-04-27T04:28:49.140Z,97165.28
2023-04-27T04:31:18.308Z,97168.91
2023-04-27T04:33:46.183Z,97173.03
2023-04-27T04:36:16.329Z,97180.69
2023-04-27T04:38:44.156Z,97177.31
2023-04-27T04:41:11.847Z,97181.41
2023-04-27T04:43:39.671Z,97185.91
2023-04-27T04:46:07.999Z,97192.75
2023-04-27T04:48:35.919Z,97190.97
2023-04-27T04:51:06.458Z,97200.09
2023-04-27T04:53:35.185Z,97193.25
2023-04-27T04:56:12.816Z,97201.34
2023-04-27T04:58:40.772Z,97208.28
2023-04-27T05:01:08.605Z,97203.91
2023-04-27T05:03:36.555Z,97204.25
2023-04-27T05:06:04.657Z,97207.50
2023-04-27T05:08:32.492Z,97219.28
2023-04-27T05:11:00.304Z,97215.94
2023-04-27T05:13:28.204Z,97219.28
2023-04-27T05:15:57.148Z,97225.44
2023-04-27T05:18:24.933Z,97227.56
2023-04-27T05:20:52.595Z,97231.41
2023-04-27T05:23:20.446Z,97235.44
2023-04-27T05:25:48.108Z,97235.22
2023-04-27T05:28:16.314Z,97233.88
2023-04-27T05:30:43.990Z,97233.63
2023-04-27T05:33:11.808Z,97242.84
2023-04-27T05:35:39.548Z,97226.91
2023-04-27T05:38:07.308Z,97241.84
2023-04-27T05:40:36.325Z,97232.25
2023-04-27T05:43:05.593Z,97239.00
2023-04-27T05:45:33.624Z,97232.03
2023-04-27T05:48:01.719Z,97234.97
2023-04-27T05:50:29.484Z,97242.28
2023-04-27T05:52:57.184Z,97243.44
2023-04-27T05:55:24.848Z,97246.00
2023-04-27T05:58:04.586Z,97241.22
2023-04-27T06:00:36.560Z,97247.47
2023-04-27T06:03:04.368Z,97237.00
2023-04-27T06:05:32.225Z,97248.53
2023-04-27T06:08:00.332Z,97249.81
2023-04-27T06:10:28.490Z,97251.59
2023-04-27T06:12:56.506Z,97250.25
2023-04-27T06:15:24.157Z,97255.84
2023-04-27T06:17:51.977Z,97248.06
2023-04-27T06:20:19.771Z,97249.72
2023-04-27T06:22:47.655Z,97249.41
2023-04-27T06:25:15.319Z,97249.63
2023-04-27T06:27:43.108Z,97254.50
2023-04-27T06:30:11.433Z,97256.41
2023-04-27T06:32:39.252Z,97257.66
2023-04-27T06:35:07.167Z,97255.72
2023-04-27T06:37:34.912Z,97252.34
2023-04-27T06:40:03.775Z,97254.78
2023-04-27T06:42:31.530Z,97261.34
2023-04-27T06:44:59.242Z,97265.47
2023-04-27T06:47:27.354Z,97252.75
2023-04-27T06:49:55.045Z,97256.44
2023-04-27T06:52:23.049Z,97256.28
2023-04-27T06:54:50.918Z,97253.66
2023-04-27T06:57:18.656Z,97261.63
2023-04-27T06:59:46.349Z,97257.00
2023-04-27T07:02:14.148Z,97249.25
2023-04-27T07:04:43.377Z,97256.00
2023-04-27T07:07:11.318Z,97255.84
2023-04-27T07:09:39.078Z,97248.06
2023-04-27T07:12:06.865Z,97252.34
2023-04-27T07:14:34.550Z,97253.38
2023-04-27T07:17:02.255Z,97255.25
2023-04-27T07:19:30.072Z,97256.16
2023-04-27T07:21:57.735Z,97255.97
2023-04-27T07:24:25.572Z,97257.06
2023-04-27T07:26:53.266Z,97259.75
2023-04-27T07:29:27.010Z,97252.22
2023-04-27T07:31:55.926Z,97251.91
2023-04-27T07:34:24.116Z,97245.09
2023-04-27T07:36:54.320Z,97243.75
2023-04-27T07:39:22.460Z,97243.44
2023-04-27T07:41:50.410Z,97250.75
2023-04-27T07:44:18.905Z,97251.31
2023-04-27T07:46:49.736Z,97243.09
2023-04-27T07:49:17.524Z,97245.97
2023-04-27T07:51:45.179Z,97250.06
2023-04-27T07:54:12.982Z,97248.09
2023-04-27T07:56:42.179Z,97239.03
2023-04-27T07:59:09.989Z,97249.88
2023-04-27T08:01:37.833Z,97251.44
2023-04-27T08:04:05.996Z,97249.31
2023-04-27T08:06:34.282Z,97251.78
2023-04-27T08:09:04.302Z,97246.59
2023-04-27T08:11:32.132Z,97244.34
2023-04-27T08:13:59.981Z,97239.22
2023-04-27T08:16:27.968Z,97247.53
2023-04-27T08:18:55.807Z,97254.19
2023-04-27T08:21:23.493Z,97245.94
2023-04-27T08:23:51.275Z,97247.88
2023-04-27T08:26:18.975Z,97244.97
2023-04-27T08:28:47.432Z,97255.63
2023-04-27T08:31:15.149Z,97248.09
2023-04-27T08:33:42.934Z,97251.31
2023-04-27T08:36:10.726Z,97244.75
2023-04-27T08:38:38.481Z,97239.28
2023-04-27T08:41:20.298Z,97249.84
2023-04-27T08:43:50.438Z,97243.78
2023-04-27T08:46:21.589Z,97244.75
2023-04-27T08:48:53.113Z,97233.78
2023-04-27T08:51:21.349Z,97239.94
2023-04-27T08:53:57.991Z,97240.84
2023-04-27T08:56:28.002Z,97245.56
2023-04-27T08:58:56.867Z,97239.06
2023-04-27T09:01:25.340Z,97235.84
2023-04-27T09:03:57.093Z,97233.06
2023-04-27T09:06:31.814Z,97234.69
2023-04-27T09:09:00.029Z,97232.81
2023-04-27T09:11:38.102Z,97239.34
2023-04-27T09:14:22.486Z,97244.91
2023-04-27T09:17:00.163Z,97238.91
2023-04-27T09:19:28.886Z,97228.75
2023-04-27T09:22:11.225Z,97226.66
2023-04-27T09:24:39.227Z,97230.13
2023-04-27T09:27:07.226Z,97240.25
2023-04-27T09:29:35.545Z,97229.25
2023-04-27T09:32:15.459Z,97234.78
2023-04-27T09:34:44.556Z,97238.84
2023-04-27T09:37:12.298Z,97237.53
2023-04-27T09:39:40.040Z,97235.47
2023-04-27T09:42:08.509Z,97236.03
2023-04-27T09:44:36.296Z,97221.91
2023-04-27T09:47:04.834Z,97215.59
2023-04-27T09:49:32.582Z,97213.81
2023-04-27T09:52:00.357Z,97217.63
2023-04-27T09:54:30.078Z,97215.97
2023-04-27T09:57:08.737Z,97210.41
2023-04-27T09:59:46.811Z,97211.59
2023-04-27T10:02:24.878Z,97205.56
2023-04-27T10:05:20.010Z,97210.81
2023-04-27T10:07:48.096Z,97204.47
2023-04-27T10:10:18.013Z,97208.53
2023-04-27T10:12:58.478Z,97203.63
2023-04-27T10:15:27.957Z,97196.38
2023-04-27T10:17:59.056Z,97197.50
2023-04-27T10:20:31.318Z,97194.72
2023-04-27T10:22:59.212Z,97189.75
2023-04-27T10:25:38.199Z,97189.72
2023-04-27T10:28:08.068Z,97195.13
2023-04-27T10:30:39.207Z,97200.56
2023-04-27T10:33:10.979Z,97199.97
2023-04-27T10:35:43.116Z,97198.47
2023-04-27T10:38:21.730Z,97194.59
2023-04-27T10:40:55.210Z,97186.91
2023-04-27T10:43:27.261Z,97195.13
2023-04-27T10:45:55.703Z,97195.63
2023-04-27T10:48:23.525Z,97202.06
2023-04-27T10:50:51.858Z,97194.34
2023-04-27T10:53:19.644Z,97199.50
2023-04-27T10:55:47.349Z,97192.16
2023-04-27T10:58:15.199Z,97183.00
2023-04-27T11:00:44.374Z,97194.78
2023-04-27T11:03:14.933Z,97195.19
2023-04-27T11:05:43.993Z,97190.34
2023-04-27T11:08:15.774Z,97187.16
2023-04-27T11:10:50.126Z,97192.44
2023-04-27T11:13:22.143Z,97190.84
2023-04-27T11:15:57.839Z,97196.94
2023-04-27T11:18:27.024Z,97184.50
2023-04-27T11:21:06.954Z,97191.19
2023-04-27T11:23:41.254Z,97184.00
2023-04-27T11:26:22.123Z,97203.81
2023-04-27T11:29:05.723Z,97194.78
2023-04-27T11:31:49.688Z,97196.19
2023-04-27T11:34:22.833Z,97188.00
2023-04-27T11:37:10.828Z,97197.59
2023-04-27T11:39:45.853Z,97196.88
2023-04-27T11:42:22.125Z,97197.22
2023-04-27T11:44:57.236Z,97192.53
2023-04-27T11:47:27.616Z,97190.13
2023-04-27T11:49:56.802Z,97187.84
2023-04-27T11:52:34.196Z,97199.56
2023-04-27T11:55:02.279Z,97200.38
2023-04-27T11:57:31.364Z,97200.03
2023-04-27T12:00:03.041Z,97192.38
2023-04-27T12:02:42.074Z,97196.16
2023-04-27T12:05:12.261Z,97194.56
2023-04-27T12:07:41.256Z,97189.19
2023-04-27T12:10:09.560Z,97196.53
2023-04-27T12:12:37.254Z,97193.59
2023-04-27T12:15:05.422Z,97195.84
2023-04-27T12:17:33.177Z,97187.66
2023-04-27T12:20:01.118Z,97201.84
2023-04-27T12:22:28.958Z,97211.03
2023-04-27T12:24:56.900Z,97205.16
2023-04-27T12:27:24.845Z,97206.69
2023-04-27T12:29:54.354Z,97210.91
2023-04-27T12:32:22.655Z,97201.97
2023-04-27T12:34:50.900Z,97202.31
2023-04-27T12:37:18.545Z,97213.56
2023-04-27T12:39:46.282Z,97206.31
2023-04-27T12:42:13.967Z,97214.69
2023-04-27T12:44:41.748Z,97218.28
2023-04-27T12:47:09.591Z,97211.75
2023-04-27T12:49:37.918Z,97216.28
2023-04-27T12:52:05.608Z,97213.41
2023-04-27T12:54:33.425Z,97206.09
2023-04-27T12:57:06.343Z,97214.31
2023-04-27T12:59:34.532Z,97208.22
2023-04-27T13:02:02.603Z,97209.66
2023-04-27T13:04:31.272Z,97205.22
2023-04-27T13:07:01.643Z,97203.25
2023-04-27T13:09:29.383Z,97198.38
2023-04-27T13:14:28.198Z,97205.22
2023-04-27T13:16:56.016Z,97205.53
2023-04-27T13:19:23.794Z,97197.53
2023-04-27T13:21:51.560Z,97206.03
2023-04-27T13:24:19.311Z,97201.41
2023-04-27T13:26:47.056Z,97202.66
2023-04-27T13:29:14.721Z,97202.03
2023-04-27T13:31:42.436Z,97196.31
2023-04-27T13:34:10.147Z,97199.88
2023-04-27T13:36:37.915Z,97205.59
2023-04-27T13:39:06.508Z,97209.50
2023-04-27T13:41:35.035Z,97200.28
2023-04-27T13:44:02.827Z,97208.69
2023-04-27T13:46:30.822Z,97208.81
2023-04-27T13:48:58.526Z,97212.00
2023-04-27T13:51:28.025Z,97214.47
2023-04-27T13:53:55.956Z,97211.66
2023-04-27T13:56:23.730Z,97216.44
2023-04-27T13:58:51.450Z,97213.28
2023-04-27T14:01:20.132Z,97217.53
2023-04-27T14:03:48.075Z,97214.75
2023-04-27T14:06:15.963Z,97219.38
2023-04-27T14:08:43.654Z,97227.56
2023-04-27T14:11:14.527Z,97228.41
2023-04-27T14:13:42.260Z,97227.44
2023-04-27T14:16:10.058Z,97219.44
2023-04-27T14:18:37.791Z,97222.19
2023-04-27T14:21:05.600Z,97217.06
2023-04-27T14:23:33.260Z,97234.31
2023-04-27T14:26:01.065Z,97226.53
2023-04-27T14:28:28.957Z,97235.00
2023-04-27T14:30:56.732Z,97231.03
2023-04-27T14:33:24.404Z,97231.06
2023-04-27T14:35:52.191Z,97243.91
2023-04-27T14:38:19.846Z,97241.34
2023-04-27T14:40:47.592Z,97231.81
2023-04-27T14:43:15.265Z,97236.22
2023-04-27T14:45:52.468Z,97241.84
2023-04-27T14:48:21.910Z,97238.97
2023-04-27T14:50:49.604Z,97242.72
2023-04-27T14:53:17.390Z,97246.59
2023-04-27T14:55:45.976Z,97254.22
2023-04-27T14:58:13.810Z,97261.72
2023-04-27T15:00:41.651Z,97258.09
2023-04-27T15:03:09.975Z,97263.03
2023-04-27T15:05:37.941Z,97265.72
2023-04-27T15:08:05.775Z,97268.41
2023-04-27T15:10:33.522Z,97277.03
2023-04-27T15:13:04.220Z,97272.00
2023-04-27T15:15:31.980Z,97272.56
2023-04-27T15:17:59.764Z,97273.22
2023-04-27T15:20:27.705Z,97274.97
2023-04-27T15:22:55.476Z,97270.53
2023-04-27T15:25:23.275Z,97280.41
2023-04-27T15:27:51.191Z,97276.13
2023-04-27T15:30:18.940Z,97281.38
2023-04-27T15:32:47.540Z,97285.06
2023-04-27T15:35:15.399Z,97279.94
2023-04-27T15:37:43.284Z,97285.66
2023-04-27T15:40:11.645Z,97275.91
2023-04-27T15:42:39.302Z,97279.13
2023-04-27T15:45:09.753Z,97289.41
2023-04-27T15:47:37.834Z,97284.38
2023-04-27T15:50:06.645Z,97283.47
2023-04-27T15:52:34.346Z,97285.91
2023-04-27T15:55:04.233Z,97293.84
2023-04-27T15:57:31.896Z,97297.22
2023-04-27T15:59:59.675Z,97298.72
2023-04-27T16:02:27.571Z,97305.16
2023-04-27T16:04:56.456Z,97299.75
2023-04-27T16:07:24.161Z,97305.16
2023-04-27T16:09:51.977Z,97309.84
2023-04-27T16:12:19.894Z,97311.44
2023-04-27T16:14:47.556Z,97320.28
2023-04-27T16:17:15.383Z,97311.91
2023-04-27T16:19:43.776Z,97315.38
2023-04-27T16:22:12.300Z,97303.16
2023-04-27T16:24:40.003Z,97322.53
2023-04-27T16:27:07.917Z,97327.88
2023-04-27T16:29:35.620Z,97329.47
2023-04-27T16:32:03.487Z,97329.63
2023-04-27T16:34:31.298Z,97327.41
2023-04-27T16:36:59.027Z,97331.13
2023-04-27T16:39:26.704Z,97342.91
2023-04-27T16:41:54.442Z,97332.69
2023-04-27T16:44:23.701Z,97338.41
2023-04-27T16:46:52.046Z,97346.41
2023-04-27T16:49:19.803Z,97350.88
2023-04-27T16:51:47.556Z,97350.88
2023-04-27T16:54:16.625Z,97354.34
2023-04-27T16:56:45.789Z,97367.53
2023-04-27T16:59:13.819Z,97363.16
2023-04-27T17:01:41.888Z,97375.81
2023-04-27T17:04:10.755Z,97371.91
2023-04-27T17:06:40.103Z,97374.25
2023-04-27T17:09:08.380Z,97376.59
2023-04-27T17:11:37.135Z,97378.97
2023-04-27T17:14:04.831Z,97383.41
2023-04-27T17:16:32.604Z,97372.91
2023-04-27T17:19:00.270Z,97378.38
2023-04-27T17:21:28.068Z,97381.88
2023-04-27T17:23:55.758Z,97385.25
2023-04-27T17:26:23.492Z,97384.75
2023-04-27T17:28:51.160Z,97395.03
2023-04-27T17:31:18.954Z,97392.34
2023-04-27T17:33:46.674Z,97384.09
2023-04-27T17:36:15.108Z,97399.13
2023-04-27T17:38:42.909Z,97389.97
2023-04-27T17:41:10.797Z,97404.81
2023-04-27T17:43:38.846Z,97406.63
2023-04-27T17:46:10.028Z,97414.78
2023-04-27T17:48:38.017Z,97417.13
2023-04-27T17:51:05.831Z,97419.56
2023-04-27T17:53:33.593Z,97413.78
2023-04-27T17:56:01.522Z,97433.44
2023-04-27T17:58:29.247Z,97440.59
2023-04-27T18:00:57.028Z,97446.97
2023-04-27T18:03:26.831Z,97437.59
2023-04-27T18:05:55.097Z,97449.22
2023-04-27T18:08:22.834Z,97466.44
2023-04-27T18:10:50.707Z,97472.22
2023-04-27T18:13:18.417Z,97473.97
2023-04-27T18:15:46.176Z,97482.41
2023-04-27T18:18:16.878Z,97484.41
2023-04-27T18:20:44.998Z,97491.56
2023-04-27T18:23:12.695Z,97494.97
2023-04-27T18:25:40.436Z,97495.16
2023-04-27T18:28:08.946Z,97500.53
2023-04-27T18:30:36.823Z,97508.22
2023-04-27T18:33:04.588Z,97510.06
2023-04-27T18:35:32.888Z,97511.63
2023-04-27T18:38:00.665Z,97513.78
2023-04-27T18:40:28.500Z,97515.81
2023-04-27T18:42:56.187Z,97528.75
2023-04-27T18:45:24.052Z,97525.25
2023-04-27T18:47:51.827Z,97532.13
2023-04-27T18:50:19.727Z,97538.69
2023-04-27T18:52:47.589Z,97534.94
2023-04-27T18:55:16.707Z,97535.97
2023-04-27T18:57:44.978Z,97534.84
2023-04-27T19:00:13.254Z,97543.06
2023-04-27T19:02:41.206Z,97549.91
2023-04-27T19:05:13.587Z,97543.59
2023-04-27T19:07:41.654Z,97551.66
2023-04-27T19:10:09.924Z,97557.38
2023-04-27T19:12:37.857Z,97553.97
2023-04-27T19:15:06.208Z,97554.69
2023-04-27T19:17:34.913Z,97563.22
2023-04-27T19:20:02.797Z,97566.66
2023-04-27T19:22:34.264Z,97566.06
2023-04-27T19:25:02.317Z,97572.81
2023-04-27T19:27:30.041Z,97561.50
2023-04-27T19:29:58.251Z,97574.25
2023-04-27T19:32:27.315Z,97584.00
2023-04-27T19:34:56.241Z,97576.94
2023-04-27T19:37:27.587Z,97578.84
2023-04-27T19:39:55.614Z,97580.56
2023-04-27T19:42:24.912Z,97585.94
2023-04-27T19:44:52.632Z,97584.75
2023-04-27T19:47:20.381Z,97589.13
2023-04-27T19:49:48.043Z,97586.59
2023-04-27T19:52:15.765Z,97592.84
2023-04-27T19:54:43.486Z,97595.03
2023-04-27T19:57:11.219Z,97592.00
2023-04-27T19:59:38.913Z,97595.41
2023-04-27T20:02:06.804Z,97590.59
2023-04-27T20:04:35.276Z,97589.72
2023-04-27T20:07:05.052Z,97593.31
2023-04-27T20:09:33.528Z,97592.81
2023-04-27T20:12:01.338Z,97583.59
2023-04-27T20:14:31.238Z,97595.03
2023-04-27T20:16:59.848Z,97602.78
2023-04-27T20:19:27.513Z,97596.19
2023-04-27T20:21:55.316Z,97596.44
2023-04-27T20:24:23.321Z,97602.16
2023-04-27T20:26:51.059Z,97602.75
2023-04-27T20:29:18.712Z,97602.06
2023-04-27T20:31:48.521Z,97599.56
2023-04-27T20:34:16.524Z,97601.69
2023-04-27T20:36:44.453Z,97606.78
2023-04-27T20:39:12.238Z,97605.66
2023-04-27T20:41:44.296Z,97607.50
2023-04-27T20:44:13.105Z,97607.88
2023-04-27T20:46:40.948Z,97604.88
2023-04-27T20:49:08.995Z,97613.22
2023-04-27T20:51:36.737Z,97610.81
2023-04-27T20:54:04.624Z,97610.16
2023-04-27T20:56:33.006Z,97615.25
2023-04-27T20:59:00.740Z,97611.47
2023-04-27T21:01:28.640Z,97624.34
2023-04-27T21:03:56.545Z,97620.66
2023-04-27T21:06:24.317Z,97618.38
2023-04-27T21:08:52.029Z,97622.09
2023-04-27T21:11:20.529Z,97620.81
2023-04-27T21:13:48.195Z,97626.75
2023-04-27T21:16:16.214Z,97615.03
2023-04-27T21:18:43.907Z,97628.13
2023-04-27T21:21:11.653Z,97620.63
2023-04-27T21:23:39.344Z,97638.63
2023-04-27T21:26:07.523Z,97632.88
2023-04-27T21:28:35.300Z,97626.91
2023-04-27T21:31:03.358Z,97622.25
2023-04-27T21:33:32.093Z,97631.06
2023-04-27T21:35:59.885Z,97623.19
2023-04-27T21:38:27.556Z,97635.06
2023-04-27T21:40:55.397Z,97627.06
2023-04-27T21:43:23.064Z,97631.84
2023-04-27T21:45:50.778Z,97632.84
2023-04-27T21:48:18.513Z,97630.50
2023-04-27T21:50:46.266Z,97637.28
2023-04-27T21:53:15.856Z,97630.47
2023-04-27T21:55:43.708Z,97629.13
2023-04-27T21:58:11.656Z,97638.97
2023-04-27T22:00:39.367Z,97639.16
2023-04-27T22:03:07.688Z,97639.72
2023-04-27T22:05:37.270Z,97636.97
2023-04-27T22:08:05.119Z,97635.81
2023-04-27T22:10:32.779Z,97635.97
2023-04-27T22:13:08.091Z,97642.34
2023-04-27T22:15:45.954Z,97632.06
2023-04-27T22:18:14.906Z,97635.69
2023-04-27T22:20:42.814Z,97642.84
2023-04-27T22:23:10.852Z,97631.38
2023-04-27T22:25:38.736Z,97631.94
2023-04-27T22:28:06.457Z,97631.00
2023-04-27T22:30:35.065Z,97640.72
2023-04-27T22:33:03.185Z,97631.69
2023-04-27T22:35:30.969Z,97637.59
2023-04-27T22:37:59.346Z,97631.66
2023-04-27T22:40:27.053Z,97647.13
2023-04-27T22:42:55.163Z,97644.44
2023-04-27T22:45:23.368Z,97641.53
2023-04-27T22:47:51.250Z,97644.09
2023-04-27T22:50:19.082Z,97640.63
2023-04-27T22:52:46.872Z,97642.75
2023-04-27T22:55:14.619Z,97643.25
2023-04-27T22:57:42.370Z,97648.09
2023-04-27T23:00:13.036Z,97635.72
2023-04-27T23:02:41.105Z,97637.59
2023-04-27T23:05:09.284Z,97631.81
2023-04-27T23:07:37.158Z,97630.09
2023-04-27T23:10:06.011Z,97622.06
2023-04-27T23:12:33.992Z,97627.13
2023-04-27T23:15:01.690Z,97632.72
2023-04-27T23:17:32.415Z,97626.63
2023-04-27T23:20:01.019Z,97622.94
2023-04-27T23:22:28.764Z,97628.63
2023-04-27T23:24:56.762Z,97625.31
2023-04-27T23:27:25.001Z,97621.63
2023-04-27T23:29:53.039Z,97630.53
2023-04-27T23:32:20.926Z,97624.97
2023-04-27T23:34:48.886Z,97631.94
2023-04-27T23:37:17.262Z,97626.53
2023-04-27T23:39:44.943Z,97622.28
2023-04-27T23:42:12.733Z,97630.97
2023-04-27T23:44:40.434Z,97635.84
2023-04-27T23:47:08.738Z,97629.56
2023-04-27T23:49:36.477Z,97634.50
2023-04-27T23:52:05.063Z,97635.34
2023-04-27T23:54:32.787Z,97635.88
2023-04-27T23:57:00.591Z,97623.97
2023-04-27T23:59:28.282Z,97626.66
